createdAt,value
2023-02-21T00:01:08.723Z,10.03
2023-02-21T00:06:29.742Z,10.12
2023-02-21T00:11:52.610Z,11.44
2023-02-21T00:17:20.297Z,12.42
2023-02-21T00:22:41.053Z,11.24
2023-02-21T00:28:04.084Z,11.46
2023-02-21T00:33:31.043Z,13.17
2023-02-21T00:38:52.139Z,13.40
2023-02-21T00:44:15.314Z,11.91
2023-02-21T00:49:40.201Z,12.27
2023-02-21T00:55:00.918Z,12.56
2023-02-21T01:00:27.115Z,13.18
2023-02-21T01:05:52.670Z,13.09
2023-02-21T01:11:16.039Z,12.47
2023-02-21T01:16:40.181Z,13.60
2023-02-21T01:22:02.436Z,13.72
2023-02-21T01:27:28.044Z,10.38
2023-02-21T01:32:51.516Z,12.66
2023-02-21T01:38:13.643Z,11.23
2023-02-21T01:43:37.717Z,13.68
2023-02-21T01:49:02.355Z,13.36
2023-02-21T01:54:26.679Z,14.32
2023-02-21T01:59:47.476Z,10.22
2023-02-21T02:05:09.965Z,6.90
2023-02-21T02:10:35.014Z,5.22
2023-02-21T02:15:44.986Z,3.91
2023-02-21T02:21:14.857Z,9.38
2023-02-21T02:26:39.308Z,12.10
2023-02-21T02:32:12.075Z,13.24
2023-02-21T02:37:21.498Z,13.00
2023-02-21T02:42:33.166Z,7.30
2023-02-21T02:47:39.473Z,4.76
2023-02-21T02:52:53.205Z,4.23
2023-02-21T02:57:59.784Z,4.80
2023-02-21T03:03:21.766Z,4.90
2023-02-21T03:08:33.129Z,3.50
2023-02-21T03:13:43.812Z,2.74
2023-02-21T03:18:50.339Z,2.29
2023-02-21T03:23:59.729Z,2.86
2023-02-21T03:29:06.069Z,2.66
2023-02-21T03:34:15.061Z,2.80
2023-02-21T03:39:22.145Z,3.33
2023-02-21T03:44:26.045Z,3.06
2023-02-21T03:49:29.522Z,2.82
2023-02-21T03:54:39.519Z,3.47
2023-02-21T03:59:43.945Z,3.22
2023-02-21T04:04:49.994Z,3.99
2023-02-21T04:09:57.721Z,3.99
2023-02-21T04:15:12.042Z,4.26
2023-02-21T04:20:18.847Z,7.93
2023-02-21T04:25:28.706Z,9.84
2023-02-21T04:30:39.025Z,12.11
2023-02-21T04:35:42.768Z,18.75
2023-02-21T04:40:54.402Z,12.48
2023-02-21T04:45:58.152Z,11.37
2023-02-21T04:51:15.180Z,13.38
2023-02-21T04:56:22.062Z,12.69
2023-02-21T05:01:28.860Z,13.48
2023-02-21T05:06:33.061Z,14.38
2023-02-21T05:11:38.052Z,13.82
2023-02-21T05:16:41.902Z,19.29
2023-02-21T05:21:45.381Z,14.54
2023-02-21T05:26:53.005Z,12.43
2023-02-21T05:31:56.535Z,13.37
2023-02-21T05:37:00.051Z,13.98
2023-02-21T05:42:04.924Z,18.64
2023-02-21T05:47:11.329Z,14.83
2023-02-21T05:52:16.974Z,15.12
2023-02-21T05:57:21.956Z,15.74
2023-02-21T06:02:27.372Z,15.28
2023-02-21T06:07:33.279Z,20.37
2023-02-21T06:12:40.390Z,15.29
2023-02-21T06:17:44.108Z,15.08
2023-02-21T06:22:48.130Z,17.04
2023-02-21T06:27:52.884Z,17.06
2023-02-21T06:32:56.575Z,17.07
2023-02-21T06:38:03.113Z,15.80
2023-02-21T06:43:08.114Z,17.29
2023-02-21T06:48:15.244Z,17.08
2023-02-21T06:53:21.362Z,17.59
2023-02-21T06:58:26.110Z,15.30
2023-02-21T07:03:29.691Z,19.94
2023-02-21T07:08:33.497Z,16.43
2023-02-21T07:13:38.444Z,13.72
2023-02-21T07:18:46.456Z,12.90
2023-02-21T07:23:50.054Z,18.15
2023-02-21T07:28:57.395Z,16.24
2023-02-21T07:34:01.141Z,17.51
2023-02-21T07:39:04.728Z,17.35
2023-02-21T07:44:10.204Z,16.89
2023-02-21T07:49:13.657Z,20.46
2023-02-21T07:54:17.221Z,18.26
2023-02-21T07:59:22.112Z,15.62
2023-02-21T08:04:25.818Z,17.85
2023-02-21T08:09:32.194Z,17.77
2023-02-21T08:14:36.984Z,22.14
2023-02-21T08:19:40.417Z,18.22
2023-02-21T08:24:43.954Z,16.39
2023-02-21T08:29:50.517Z,13.35
2023-02-21T08:34:54.216Z,14.63
2023-02-21T08:39:57.704Z,15.01
2023-02-21T08:45:02.744Z,16.00
2023-02-21T08:50:06.700Z,16.30
2023-02-21T08:55:10.210Z,17.60
2023-02-21T09:00:16.851Z,16.98
2023-02-21T09:05:24.484Z,18.09
2023-02-21T09:10:34.045Z,16.28
2023-02-21T09:15:38.942Z,18.02
2023-02-21T09:20:42.910Z,18.78
2023-02-21T09:25:46.577Z,16.89
2023-02-21T09:30:52.153Z,18.84
2023-02-21T09:35:55.711Z,17.50
2023-02-21T09:41:03.033Z,16.55
2023-02-21T09:46:12.621Z,16.58
2023-02-21T09:51:16.694Z,16.49
2023-02-21T09:56:28.253Z,16.57
2023-02-21T10:01:45.437Z,13.39
2023-02-21T10:06:54.024Z,12.68
2023-02-21T10:12:06.785Z,14.61
2023-02-21T10:17:19.159Z,14.95
2023-02-21T10:22:27.381Z,17.36
2023-02-21T10:27:34.518Z,17.71
2023-02-21T10:32:40.029Z,17.48
2023-02-21T10:37:47.445Z,16.36
2023-02-21T10:42:54.575Z,20.26
2023-02-21T10:48:02.056Z,17.46
2023-02-21T10:53:05.675Z,18.21
2023-02-21T10:58:23.290Z,18.77
2023-02-21T11:03:28.396Z,20.39
2023-02-21T11:08:36.847Z,23.40
2023-02-21T11:13:40.370Z,24.15
2023-02-21T11:18:47.617Z,21.71
2023-02-21T11:23:59.082Z,15.28
2023-02-21T11:29:09.922Z,15.29
2023-02-21T11:34:19.643Z,16.44
2023-02-21T11:39:28.026Z,17.21
2023-02-21T11:44:34.143Z,16.73
2023-02-21T11:49:48.859Z,16.64
2023-02-21T11:54:54.037Z,16.94
2023-02-21T12:00:08.261Z,16.28
2023-02-21T12:05:29.677Z,16.14
2023-02-21T12:10:46.252Z,14.66
2023-02-21T12:15:56.458Z,17.12
2023-02-21T12:21:27.039Z,16.87
2023-02-21T12:26:45.670Z,16.09
2023-02-21T12:31:58.491Z,16.52
2023-02-21T12:37:10.419Z,15.72
2023-02-21T12:42:28.211Z,16.77
2023-02-21T12:47:36.938Z,18.04
2023-02-21T12:52:51.014Z,14.95
2023-02-21T12:58:00.144Z,22.21
2023-02-21T13:03:10.818Z,16.24
2023-02-21T13:08:21.847Z,7.83
2023-02-21T13:13:28.181Z,7.33
2023-02-21T13:18:34.469Z,7.55
2023-02-21T13:23:44.784Z,6.80
2023-02-21T13:28:53.591Z,8.10
2023-02-21T13:33:58.779Z,7.92
2023-02-21T13:39:13.104Z,6.92
2023-02-21T13:44:20.855Z,7.78
2023-02-21T13:49:39.339Z,9.51
2023-02-21T13:54:57.657Z,10.86
2023-02-21T14:00:23.469Z,16.48
2023-02-21T14:05:28.136Z,19.13
2023-02-21T14:10:34.906Z,11.60
2023-02-21T14:15:44.735Z,9.87
2023-02-21T14:20:51.081Z,7.94
2023-02-21T14:26:01.245Z,9.33
2023-02-21T14:31:06.154Z,8.86
2023-02-21T14:36:15.204Z,11.45
2023-02-21T14:41:39.867Z,11.53
2023-02-21T14:46:57.832Z,10.61
2023-02-21T14:52:27.366Z,10.66
2023-02-21T14:57:53.849Z,11.34
2023-02-21T15:03:05.958Z,11.03
2023-02-21T15:08:17.157Z,11.03
2023-02-21T15:13:22.730Z,10.32
2023-02-21T15:18:28.751Z,10.04
2023-02-21T15:23:32.588Z,10.32
2023-02-21T15:28:36.003Z,10.90
2023-02-21T15:33:42.452Z,12.68
2023-02-21T15:38:48.981Z,19.46
2023-02-21T15:43:59.666Z,33.33
2023-02-21T15:49:06.938Z,23.76
2023-02-21T15:54:24.387Z,18.53
2023-02-21T15:59:29.246Z,18.46
2023-02-21T16:04:37.593Z,18.07
2023-02-21T16:09:47.734Z,18.19
2023-02-21T16:14:59.140Z,19.19
2023-02-21T16:20:16.804Z,18.35
2023-02-21T16:25:22.503Z,19.93
2023-02-21T16:30:29.360Z,18.90
2023-02-21T16:35:36.514Z,18.04
2023-02-21T16:40:39.880Z,20.98
2023-02-21T16:45:45.598Z,17.35
2023-02-21T16:50:51.486Z,18.29
2023-02-21T16:55:55.441Z,19.40
2023-02-21T17:01:00.844Z,20.41
2023-02-21T17:06:06.386Z,32.53
2023-02-21T17:11:09.964Z,20.17
2023-02-21T17:16:15.665Z,26.33
2023-02-21T17:21:20.909Z,20.09
2023-02-21T17:26:24.505Z,20.93
2023-02-21T17:31:28.268Z,19.47
2023-02-21T17:36:33.189Z,21.19
2023-02-21T17:41:36.703Z,30.02
2023-02-21T17:46:40.161Z,26.73
2023-02-21T17:51:45.031Z,28.04
2023-02-21T17:56:51.284Z,30.57
2023-02-21T18:01:54.846Z,25.33
2023-02-21T18:06:59.680Z,20.39
2023-02-21T18:12:04.461Z,20.43
2023-02-21T18:17:09.950Z,26.88
2023-02-21T18:22:14.867Z,13.29
2023-02-21T18:27:18.273Z,12.70
2023-02-21T18:32:21.731Z,10.85
2023-02-21T18:37:26.700Z,10.98
2023-02-21T18:42:30.107Z,10.87
2023-02-21T18:47:36.278Z,12.62
2023-02-21T18:52:41.396Z,11.44
2023-02-21T18:57:45.135Z,12.12
2023-02-21T19:02:50.790Z,11.81
2023-02-21T19:07:55.758Z,19.41
2023-02-21T19:13:02.126Z,20.61
2023-02-21T19:18:05.752Z,21.58
2023-02-21T19:23:10.706Z,27.86
2023-02-21T19:28:14.233Z,23.25
2023-02-21T19:33:17.652Z,29.94
2023-02-21T19:38:22.376Z,18.21
2023-02-21T19:43:28.302Z,17.55
2023-02-21T19:48:31.803Z,17.59
2023-02-21T19:53:36.582Z,36.98
2023-02-21T19:58:40.218Z,22.27
2023-02-21T20:03:44.444Z,18.17
2023-02-21T20:08:49.230Z,15.80
2023-02-21T20:13:52.649Z,16.77
2023-02-21T20:18:59.021Z,20.16
2023-02-21T20:24:08.285Z,21.82
2023-02-21T20:29:11.672Z,21.03
2023-02-21T20:34:15.141Z,19.35
2023-02-21T20:39:22.655Z,20.61
2023-02-21T20:44:28.824Z,20.27
2023-02-21T20:49:35.332Z,22.06
2023-02-21T20:54:40.164Z,21.59
2023-02-21T20:59:43.601Z,18.86
2023-02-21T21:04:48.288Z,24.31
2023-02-21T21:09:53.262Z,21.39
2023-02-21T21:14:56.917Z,18.81
2023-02-21T21:20:00.477Z,20.01
2023-02-21T21:25:06.000Z,20.69
2023-02-21T21:30:12.437Z,19.52
2023-02-21T21:35:17.133Z,16.97
2023-02-21T21:40:26.794Z,16.16
2023-02-21T21:45:30.664Z,16.29
2023-02-21T21:50:34.077Z,17.03
2023-02-21T21:55:41.262Z,17.66
2023-02-21T22:00:50.371Z,21.14
2023-02-21T22:05:56.194Z,17.53
2023-02-21T22:11:04.175Z,16.23
2023-02-21T22:16:09.896Z,15.50
2023-02-21T22:21:14.221Z,16.77
2023-02-21T22:26:22.600Z,16.86
2023-02-21T22:31:27.204Z,16.30
2023-02-21T22:36:31.598Z,17.35
2023-02-21T22:41:36.866Z,17.40
2023-02-21T22:46:41.961Z,19.11
2023-02-21T22:51:45.523Z,18.90
2023-02-21T22:56:52.531Z,18.35
2023-02-21T23:01:58.520Z,18.46
2023-02-21T23:07:02.426Z,17.22
2023-02-21T23:12:09.916Z,17.71
2023-02-21T23:17:13.291Z,17.60
2023-02-21T23:22:16.841Z,17.97
2023-02-21T23:27:21.623Z,18.50
2023-02-21T23:32:27.351Z,18.10
2023-02-21T23:37:32.912Z,17.19
2023-02-21T23:42:40.975Z,18.57
2023-02-21T23:47:44.685Z,19.64
2023-02-21T23:52:49.181Z,21.29
2023-02-21T23:57:59.902Z,19.70
